Clayton, IL (62324)

6:04 AM CST on February 12, 2016 (GMT -0600)
Camp Point | | Change Station
CLOSE
Current Station
Personal Weather Station
Location: Camp Point, IL
Elevation: 710 ft
Nearby Weather Stations

Elev 710 ft 40.04 °N, 91.07 °W | Updated 7 seconds ago

Overcast
Overcast
18.1 °F
Feels Like 18 °F
N
0.0
Wind Variable Wind from NW
Gusts 0.0 mph

Today
High -- | Low -- °F
--% Chance of Precip.
Yesterday
High -- | Low -- °F
Precip. -- in
Pressure 30.27 in
Visibility 10.0 miles
Clouds Overcast 4400 ft
Windchill 18 °F
Dew Point 2 °F
Humidity 49%
Rainfall 0.00 in
Snow Depth Not available.
7:01 AM 5:35 PM
Waxing Crescent, 20% visible
METAR KUIN 121154Z AUTO 31003KT 10SM OVC044 M07/M08 A3023 RMK AO2 SLP248 60002 70003 T10671083 11067 21067 53008
Pressure 30.27 in
Visibility 10.0 miles
Clouds Overcast 4400 ft
Windchill 18 °F
Dew Point 2 °F
Humidity 49%
Rainfall 0.00 in
Snow Depth Not available.
7:01 AM 5:35 PM
Waxing Crescent, 20% visible
METAR KUIN 121154Z AUTO 31003KT 10SM OVC044 M07/M08 A3023 RMK AO2 SLP248 60002 70003 T10671083 11067 21067 53008

10-Day Weather Forecast

Almanac

Astronomy

Feb. 12, 2016 Rise Set
Actual Time
Civil Twilight
Nautical Twilight
Astronomical Twilight
Moon
Length of Visible Light
Length of Day
Tomorrow will be .
, % of the Moon is Illuminated

Today's Extremes

State Highs State Lows

Community

WunderPhotos

Upload Photos

1,892,294 photos uploaded!

WunderBlog® & News

Nearby

Air Quality

  Air Quality AQ Index Pollutant
Not available.

Snow Depth

Station Depth Elevation

Earthquake Activity

City Distance Mag. Time & Date
Minimum magnitude displayed is 2.5.

Coastal Water Temperatures

Place Temperature

Stations

Nearby Weather Stations

Station Location Temp. Windchill Dew Point Humidity Wind Precip. Elev Updated Type
                   

Watches & Warnings

There are currently no watches in effect.